Time;durP1;ratioP1;P1;durP2;ratioP2;P2;SDS_P1;SDS_P2;PMS_P1;PMS_P2;Temp;Humidity;BMP_temperature;BMP_pressure;BME280_temperature;BME280_humidity;BME280_pressure;Samples;Min_cycle;Max_cycle;Signal;HPM_P1;HPM_P2
2021/01/23 00:02:17;;;;;;;14.55;6.75;;;;;;;3.42;80.58;94898.16;5018232;28;20509;-72
2021/01/23 00:04:44;;;;;;;12.30;6.50;;;;;;;3.43;80.32;94886.91;5026770;28;20050;-72
2021/01/23 00:07:10;;;;;;;13.80;7.68;;;;;;;3.49;80.55;94883.56;5047284;28;20046;-72
2021/01/23 00:09:37;;;;;;;16.73;7.93;;;;;;;3.51;80.55;94875.66;5008413;28;21832;-71
2021/01/23 00:12:04;;;;;;;12.07;6.45;;;;;;;3.54;80.84;94873.53;5014514;28;20417;-72
2021/01/23 00:14:32;;;;;;;13.15;7.03;;;;;;;3.59;80.78;94876.34;5005636;28;20044;-72
2021/01/23 00:16:59;;;;;;;10.70;6.72;;;;;;;3.59;81.06;94873.75;5033631;28;20407;-70
2021/01/23 00:19:26;;;;;;;16.67;7.40;;;;;;;3.67;81.07;94882.34;5040706;28;20039;-70
2021/01/23 00:21:52;;;;;;;16.48;8.00;;;;;;;3.66;80.94;94871.25;5052006;28;20044;-71
2021/01/23 00:24:19;;;;;;;20.60;8.63;;;;;;;3.68;80.85;94868.47;5013776;28;20068;-70
2021/01/23 00:26:46;;;;;;;11.45;6.85;;;;;;;3.61;80.64;94846.03;5018714;28;20046;-70
2021/01/23 00:29:13;;;;;;;13.55;6.70;;;;;;;3.81;80.83;94863.41;5015957;28;20049;-70
2021/01/23 00:31:40;;;;;;;9.38;5.18;;;;;;;3.85;80.47;94869.00;5025116;28;20038;-70
2021/01/23 00:34:09;;;;;;;10.43;5.97;;;;;;;3.88;80.38;94869.41;5025399;28;22046;-70
2021/01/23 00:36:35;;;;;;;8.05;5.43;;;;;;;3.82;80.20;94849.56;5037965;28;20040;-70
2021/01/23 00:39:03;;;;;;;11.77;5.70;;;;;;;3.86;80.31;94858.50;5018017;28;20043;-70
2021/01/23 00:41:30;;;;;;;8.68;5.57;;;;;;;3.76;80.52;94866.56;5026129;28;20042;-71
2021/01/23 00:43:59;;;;;;;8.73;5.38;;;;;;;3.84;80.66;94868.22;5037262;28;20110;-70
2021/01/23 00:46:26;;;;;;;11.90;5.47;;;;;;;3.74;80.66;94878.03;5006591;28;20049;-70
2021/01/23 00:48:52;;;;;;;9.32;5.38;;;;;;;3.58;80.95;94858.50;5014168;28;20377;-71
2021/01/23 00:51:19;;;;;;;8.95;6.28;;;;;;;3.49;81.64;94860.41;5024513;28;20117;-71
2021/01/23 00:53:45;;;;;;;9.10;5.80;;;;;;;3.22;82.61;94844.75;5006258;28;20046;-71
2021/01/23 00:56:12;;;;;;;10.70;5.85;;;;;;;3.37;82.07;94841.31;5008821;28;20100;-70
2021/01/23 00:58:39;;;;;;;12.75;6.97;;;;;;;3.40;81.90;94840.91;5016371;28;20041;-70
2021/01/23 01:01:06;;;;;;;9.27;5.22;;;;;;;3.36;82.37;94847.44;5029257;28;20038;-71
2021/01/23 01:03:34;;;;;;;8.50;5.47;;;;;;;3.37;82.17;94854.19;5021398;28;20052;-71
2021/01/23 01:06:05;;;;;;;9.80;6.38;;;;;;;3.36;82.32;94860.28;5035170;28;20042;-71
2021/01/23 01:08:31;;;;;;;11.40;6.60;;;;;;;3.33;82.20;94860.66;5020306;28;20046;-70
2021/01/23 01:10:58;;;;;;;13.57;7.43;;;;;;;3.24;82.47;94853.06;5035639;28;20040;-71
2021/01/23 01:13:24;;;;;;;10.10;6.75;;;;;;;2.94;83.53;94857.53;5042191;28;20116;-70
2021/01/23 01:15:50;;;;;;;13.93;7.22;;;;;;;2.75;84.84;94853.75;5008308;28;20496;-70
2021/01/23 01:18:17;;;;;;;11.07;6.95;;;;;;;2.72;85.36;94843.84;5031317;28;20063;-70
2021/01/23 01:20:44;;;;;;;14.50;7.43;;;;;;;2.90;85.03;94855.50;5022258;28;20059;-70
2021/01/23 01:23:10;;;;;;;15.32;7.65;;;;;;;2.84;84.74;94832.09;5032527;28;20425;-70
2021/01/23 01:25:37;;;;;;;12.15;6.53;;;;;;;2.92;84.94;94853.53;4997455;28;20428;-70
2021/01/23 01:28:03;;;;;;;13.35;7.55;;;;;;;2.80;85.42;94838.59;5023795;28;20036;-70
2021/01/23 01:30:29;;;;;;;12.10;7.45;;;;;;;2.98;85.26;94845.09;5047515;28;20040;-70
2021/01/23 01:32:56;;;;;;;13.90;7.15;;;;;;;3.10;84.85;94841.06;5007794;28;20502;-70
2021/01/23 01:35:22;;;;;;;15.75;7.15;;;;;;;3.21;84.31;94848.28;4990154;28;20056;-70
2021/01/23 01:37:49;;;;;;;13.13;7.03;;;;;;;3.25;83.82;94833.28;5031141;28;20042;-70
2021/01/23 01:40:16;;;;;;;21.65;11.38;;;;;;;3.34;83.26;94815.94;5031242;28;20102;-71
2021/01/23 01:42:43;;;;;;;36.75;15.95;;;;;;;3.33;83.26;94809.16;5059407;28;20514;-70
2021/01/23 01:45:10;;;;;;;18.15;10.32;;;;;;;3.41;82.92;94819.34;5010717;28;20050;-70
2021/01/23 01:47:37;;;;;;;13.13;7.93;;;;;;;3.35;82.38;94786.59;5014038;28;20121;-70
2021/01/23 01:50:05;;;;;;;10.65;6.93;;;;;;;3.52;81.81;94813.69;5021757;28;20039;-70
2021/01/23 01:52:32;;;;;;;10.55;6.43;;;;;;;3.35;82.04;94808.03;5027384;28;20468;-70
2021/01/23 01:54:59;;;;;;;11.93;6.07;;;;;;;3.34;81.77;94792.75;5033862;28;20175;-70
2021/01/23 01:57:25;;;;;;;10.82;5.97;;;;;;;3.37;81.61;94795.75;5050844;28;20061;-70
2021/01/23 01:59:52;;;;;;;10.77;5.40;;;;;;;3.40;82.01;94799.72;5015303;28;20503;-70
2021/01/23 02:02:30;;;;;;;10.63;6.03;;;;;;;3.16;83.18;94803.50;5036121;28;20066;-70
2021/01/23 02:05:06;;;;;;;12.25;5.53;;;;;;;3.22;83.44;94801.00;5045888;28;20406;-70
2021/01/23 02:08:05;;;;;;;9.35;5.40;;;;;;;3.27;83.12;94807.34;5015346;28;20126;-70
2021/01/23 02:10:52;;;;;;;13.27;6.38;;;;;;;3.29;83.08;94807.97;5054331;28;20430;-70
2021/01/23 02:13:18;;;;;;;7.65;5.07;;;;;;;3.32;83.09;94799.88;5018177;28;20419;-70
2021/01/23 02:15:57;;;;;;;9.02;5.28;;;;;;;3.31;82.71;94806.00;5009915;28;20542;-70
2021/01/23 02:18:28;;;;;;;9.00;5.75;;;;;;;3.30;82.90;94807.00;5016114;28;20506;-70
2021/01/23 02:21:13;;;;;;;10.38;6.78;;;;;;;3.41;82.76;94811.63;5032195;28;20068;-70
2021/01/23 02:23:46;;;;;;;9.95;5.93;;;;;;;3.41;82.27;94809.06;5012930;28;22047;-70
2021/01/23 02:26:56;;;;;;;11.55;6.82;;;;;;;3.33;82.37;94799.69;5018774;28;20472;-70
2021/01/23 02:29:51;;;;;;;8.65;6.03;;;;;;;3.22;83.01;94798.41;5026532;28;20087;-70
2021/01/23 02:32:20;;;;;;;13.50;5.22;;;;;;;3.43;82.91;94789.06;5033527;28;20043;-70
2021/01/23 02:34:48;;;;;;;7.65;5.50;;;;;;;3.59;82.06;94791.34;4998127;28;20038;-70
2021/01/23 02:37:15;;;;;;;11.55;5.63;;;;;;;3.56;81.50;94778.03;5031459;28;20501;-72
2021/01/23 02:39:43;;;;;;;9.55;6.00;;;;;;;3.50;81.35;94773.66;5014618;28;20050;-72
2021/01/23 02:42:09;;;;;;;9.98;5.68;;;;;;;3.46;82.26;94783.53;5022070;28;20033;-72
2021/01/23 02:44:36;;;;;;;8.90;5.25;;;;;;;3.23;82.20;94758.81;5003383;28;20043;-72
2021/01/23 02:47:02;;;;;;;11.95;6.32;;;;;;;3.11;83.53;94775.72;5016774;28;20040;-71
2021/01/23 02:49:29;;;;;;;11.15;6.30;;;;;;;3.01;84.00;94776.06;5035815;28;20098;-71
2021/01/23 02:52:11;;;;;;;27.98;6.38;;;;;;;2.81;84.86;94768.16;5006265;28;20044;-72
2021/01/23 02:54:55;;;;;;;9.95;6.65;;;;;;;2.86;85.11;94763.28;5036159;28;20078;-71
2021/01/23 02:57:24;;;;;;;11.98;5.97;;;;;;;2.92;84.29;94769.44;5033414;28;20053;-71
2021/01/23 02:59:58;;;;;;;11.10;6.65;;;;;;;3.12;83.82;94767.03;5007278;28;20068;-71
2021/01/23 03:02:26;;;;;;;19.67;8.35;;;;;;;3.35;83.01;94755.72;5046758;28;20041;-71
2021/01/23 03:04:58;;;;;;;11.10;6.45;;;;;;;3.30;82.78;94753.72;5012500;28;20058;-72
2021/01/23 03:07:24;;;;;;;9.60;6.20;;;;;;;3.28;82.76;94739.44;5017184;28;20046;-71
2021/01/23 03:09:51;;;;;;;8.23;5.70;;;;;;;3.28;82.67;94752.28;5027368;28;20041;-71
2021/01/23 03:12:17;;;;;;;11.77;6.63;;;;;;;2.95;83.97;94756.19;5036775;28;20042;-71
2021/01/23 03:14:43;;;;;;;9.35;5.78;;;;;;;2.77;84.25;94717.28;5023068;28;20051;-73
2021/01/23 03:17:10;;;;;;;10.55;6.00;;;;;;;2.90;84.27;94742.31;5043553;28;20044;-71
2021/01/23 03:19:37;;;;;;;11.60;5.95;;;;;;;2.77;84.89;94728.34;5014140;28;20107;-71
2021/01/23 03:22:03;;;;;;;10.18;6.28;;;;;;;2.84;84.78;94734.34;5031204;28;20514;-72
2021/01/23 03:24:29;;;;;;;11.55;5.57;;;;;;;3.03;84.49;94732.13;5020716;28;20534;-72
2021/01/23 03:26:56;;;;;;;9.98;5.88;;;;;;;3.09;84.15;94721.09;5038568;28;20041;-72
2021/01/23 03:29:22;;;;;;;11.73;6.25;;;;;;;3.10;83.54;94727.84;5025488;28;20048;-72
2021/01/23 03:31:50;;;;;;;10.50;5.55;;;;;;;3.24;83.49;94732.09;5037282;28;20135;-71
2021/01/23 03:34:17;;;;;;;8.25;5.45;;;;;;;3.35;83.34;94729.97;5027183;28;20407;-71
2021/01/23 03:36:43;;;;;;;13.60;5.38;;;;;;;3.39;82.79;94732.00;5031122;28;20070;-72
2021/01/23 03:39:09;;;;;;;10.95;6.50;;;;;;;3.49;82.85;94736.78;5043587;28;20065;-71
2021/01/23 03:41:36;;;;;;;11.68;6.13;;;;;;;3.53;82.15;94726.91;5020092;28;20104;-71
2021/01/23 03:44:04;;;;;;;10.50;6.45;;;;;;;3.61;82.12;94735.28;5065466;28;20524;-73
2021/01/23 03:46:31;;;;;;;10.63;6.35;;;;;;;3.37;82.87;94728.03;5049169;28;20040;-72
2021/01/23 03:48:58;;;;;;;11.93;5.78;;;;;;;3.50;82.88;94712.66;5027336;28;20048;-72
2021/01/23 03:51:24;;;;;;;30.35;12.73;;;;;;;3.70;81.93;94730.00;5018155;28;20427;-72
2021/01/23 03:53:50;;;;;;;23.13;11.23;;;;;;;3.94;81.31;94734.69;5043221;28;20068;-72
2021/01/23 03:56:17;;;;;;;18.52;10.00;;;;;;;3.83;81.71;94728.28;5060273;28;20047;-72
2021/01/23 03:58:43;;;;;;;11.90;6.63;;;;;;;3.79;81.71;94718.53;5028556;28;20040;-72
2021/01/23 04:01:09;;;;;;;9.25;5.80;;;;;;;3.86;81.18;94716.78;5026714;28;20138;-72
2021/01/23 04:03:36;;;;;;;8.82;6.43;;;;;;;4.05;81.00;94732.53;5002035;28;20057;-69
2021/01/23 04:06:03;;;;;;;11.27;6.10;;;;;;;4.12;80.57;94730.75;5013349;28;20046;-71
2021/01/23 04:08:33;;;;;;;11.50;6.93;;;;;;;4.01;80.92;94714.84;5019846;28;20047;-71
2021/01/23 04:11:00;;;;;;;8.77;5.53;;;;;;;4.08;80.58;94719.25;5014023;28;20046;-71
2021/01/23 04:13:26;;;;;;;10.80;6.72;;;;;;;4.29;79.76;94731.25;5013044;28;20068;-72
2021/01/23 04:15:53;;;;;;;13.68;7.38;;;;;;;4.34;79.78;94734.81;5037140;28;20389;-72
2021/01/23 04:18:20;;;;;;;13.32;7.82;;;;;;;4.44;79.46;94733.66;5053214;28;20403;-72
2021/01/23 04:20:46;;;;;;;12.60;6.47;;;;;;;4.37;79.09;94713.78;5055021;28;20051;-72
2021/01/23 04:23:13;;;;;;;10.38;6.25;;;;;;;4.38;79.29;94715.38;5029680;28;20041;-72
2021/01/23 04:25:39;;;;;;;11.40;5.68;;;;;;;4.33;79.87;94712.59;5029819;28;20046;-72
2021/01/23 04:28:05;;;;;;;12.50;5.85;;;;;;;4.24;79.57;94703.44;5037236;28;20040;-71
2021/01/23 04:30:32;;;;;;;9.07;5.55;;;;;;;4.35;79.27;94720.91;5008995;28;20038;-72
2021/01/23 04:32:58;;;;;;;10.20;5.18;;;;;;;4.40;79.26;94723.72;4990977;28;20042;-71
2021/01/23 04:35:25;;;;;;;9.63;5.68;;;;;;;4.31;79.57;94709.41;5041913;28;20051;-73
2021/01/23 04:37:51;;;;;;;13.98;6.80;;;;;;;4.46;79.47;94711.03;5030313;28;20303;-73
2021/01/23 04:40:17;;;;;;;11.35;6.80;;;;;;;4.34;79.57;94709.03;5037608;28;20382;-71
2021/01/23 04:42:44;;;;;;;16.60;6.85;;;;;;;4.14;79.55;94703.00;5034976;28;20078;-72
2021/01/23 04:45:11;;;;;;;20.38;12.60;;;;;;;4.24;79.84;94736.97;5012376;28;20049;-73
2021/01/23 04:47:40;;;;;;;17.95;10.30;;;;;;;4.47;79.26;94733.28;5029350;28;20452;-73
2021/01/23 04:50:09;;;;;;;22.27;11.85;;;;;;;4.45;79.37;94704.28;5059488;28;20510;-72
2021/01/23 04:52:41;;;;;;;18.92;12.23;;;;;;;4.54;78.99;94692.81;5016558;28;20045;-72
2021/01/23 04:55:09;;;;;;;21.92;9.60;;;;;;;4.62;78.39;94704.72;5052842;28;20060;-72
2021/01/23 04:57:36;;;;;;;15.02;7.45;;;;;;;4.55;78.85;94712.44;5044602;28;20066;-71
2021/01/23 05:00:05;;;;;;;12.45;7.90;;;;;;;4.57;78.51;94713.03;5023392;28;20044;-72
2021/01/23 05:02:33;;;;;;;10.07;6.72;;;;;;;4.55;78.49;94699.53;5007174;28;20043;-72
2021/01/23 05:05:02;;;;;;;12.80;7.47;;;;;;;4.54;78.67;94705.72;5029553;28;20501;-72
2021/01/23 05:07:40;;;;;;;11.00;7.35;;;;;;;4.42;78.84;94699.53;5030003;28;20055;-72
2021/01/23 05:10:17;;;;;;;11.95;7.80;;;;;;;4.62;78.41;94704.72;4970901;28;20065;-72
2021/01/23 05:12:46;;;;;;;15.82;8.13;;;;;;;4.65;77.95;94684.47;5007161;28;20530;-73
2021/01/23 05:15:32;;;;;;;15.15;8.02;;;;;;;4.74;77.69;94685.88;5034478;28;20044;-72
2021/01/23 05:18:04;;;;;;;18.00;10.75;;;;;;;4.79;76.96;94687.88;5013808;28;20053;-72
2021/01/23 05:20:42;;;;;;;35.83;19.45;;;;;;;4.93;77.09;94696.38;4993403;28;20058;-72
2021/01/23 05:23:12;;;;;;;25.70;14.02;;;;;;;4.87;76.69;94679.13;5011332;28;20071;-72
2021/01/23 05:25:41;;;;;;;16.48;10.23;;;;;;;4.95;76.82;94684.06;5038485;28;20044;-73
2021/01/23 05:28:09;;;;;;;19.80;9.73;;;;;;;4.90;76.78;94686.47;5006092;28;20083;-73
2021/01/23 05:30:50;;;;;;;16.20;10.93;;;;;;;4.36;78.53;94660.63;5032508;28;20069;-72
2021/01/23 05:33:35;;;;;;;14.32;8.30;;;;;;;4.33;78.68;94680.88;5022328;28;20509;-72
2021/01/23 05:36:07;;;;;;;17.67;8.32;;;;;;;4.47;78.54;94672.16;5026209;28;20040;-72
2021/01/23 05:38:41;;;;;;;12.60;8.10;;;;;;;4.48;78.21;94681.47;5020421;28;20123;-72
2021/01/23 05:41:33;;;;;;;16.02;11.43;;;;;;;4.65;78.18;94697.38;5021519;28;20033;-72
2021/01/23 05:43:59;;;;;;;26.10;17.92;;;;;;;4.69;77.70;94685.66;5027848;28;20525;-74
2021/01/23 05:46:25;;;;;;;17.58;12.57;;;;;;;4.64;77.96;94664.81;5011144;28;20119;-72
2021/01/23 05:48:53;;;;;;;15.95;9.90;;;;;;;4.57;77.96;94662.25;4999824;28;20500;-72
2021/01/23 05:51:20;;;;;;;15.63;9.90;;;;;;;4.61;77.76;94665.25;5044265;28;20116;-72
2021/01/23 05:53:47;;;;;;;11.52;7.68;;;;;;;4.31;79.23;94678.47;4969907;28;20050;-73
2021/01/23 05:56:14;;;;;;;32.60;19.58;;;;;;;4.18;80.01;94683.63;5016691;28;20042;-72
2021/01/23 05:58:43;;;;;;;23.58;15.50;;;;;;;4.31;79.94;94672.53;5007812;28;20051;-72
2021/01/23 06:01:20;;;;;;;15.77;9.02;;;;;;;4.28;80.12;94663.38;5033460;28;20045;-72
2021/01/23 06:03:51;;;;;;;14.35;9.75;;;;;;;4.11;80.94;94646.72;5037235;28;21205;-72
2021/01/23 06:06:18;;;;;;;18.48;11.13;;;;;;;4.27;80.65;94651.50;5046343;28;20032;-73
2021/01/23 06:08:51;;;;;;;26.58;14.98;;;;;;;4.26;80.92;94660.22;5025294;28;20047;-73
2021/01/23 06:11:20;;;;;;;23.08;15.27;;;;;;;4.05;82.02;94647.47;5044645;28;20112;-72
2021/01/23 06:13:55;;;;;;;18.15;12.90;;;;;;;3.89;82.79;94644.28;5006154;28;20115;-72
2021/01/23 06:16:34;;;;;;;17.30;10.95;;;;;;;3.82;83.70;94654.53;5015308;28;20042;-73
2021/01/23 06:19:06;;;;;;;16.05;8.75;;;;;;;3.83;83.79;94661.31;5033468;28;20090;-72
2021/01/23 06:21:43;;;;;;;16.50;10.73;;;;;;;3.85;83.34;94673.97;5013547;28;20096;-72
2021/01/23 06:24:14;;;;;;;13.65;9.07;;;;;;;3.89;83.28;94633.97;5007316;28;20151;-72
2021/01/23 06:26:52;;;;;;;15.13;8.60;;;;;;;3.97;83.29;94656.97;5037697;28;20033;-72
2021/01/23 06:29:38;;;;;;;15.90;7.88;;;;;;;4.02;83.20;94649.44;5014859;28;20507;-72
2021/01/23 06:32:13;;;;;;;13.15;7.65;;;;;;;3.96;83.57;94660.56;5034199;28;20047;-72
2021/01/23 06:34:47;;;;;;;14.13;7.95;;;;;;;3.94;83.73;94657.38;5033328;28;20515;-72
2021/01/23 06:37:27;;;;;;;15.48;8.50;;;;;;;3.92;83.89;94637.94;5032472;28;20040;-72
2021/01/23 06:39:56;;;;;;;13.30;7.75;;;;;;;3.87;84.40;94651.41;5034874;28;20046;-72
2021/01/23 06:42:23;;;;;;;14.18;7.90;;;;;;;3.80;84.45;94635.13;5038288;28;20101;-72
2021/01/23 06:44:49;;;;;;;12.85;7.80;;;;;;;3.97;84.12;94646.66;5010416;28;20048;-72
2021/01/23 06:47:16;;;;;;;14.40;8.13;;;;;;;3.79;84.52;94630.94;5033893;28;20525;-73
2021/01/23 06:49:44;;;;;;;14.82;10.65;;;;;;;3.95;84.33;94648.63;5014842;28;20049;-72
2021/01/23 06:52:11;;;;;;;11.10;7.78;;;;;;;4.00;84.41;94661.75;5027056;28;20125;-72
2021/01/23 06:54:44;;;;;;;12.15;7.07;;;;;;;3.98;84.58;94642.28;5019976;28;20055;-72
2021/01/23 06:57:12;;;;;;;12.77;8.73;;;;;;;3.99;84.53;94644.69;5015856;28;20050;-74
2021/01/23 06:59:39;;;;;;;15.88;8.82;;;;;;;4.06;84.68;94634.41;5037654;28;20040;-72
2021/01/23 07:02:06;;;;;;;12.85;8.30;;;;;;;4.18;84.08;94637.22;5032312;28;20466;-71
2021/01/23 07:04:45;;;;;;;15.95;8.80;;;;;;;4.29;83.84;94631.47;5010213;28;20063;-71
2021/01/23 07:07:13;;;;;;;15.55;8.70;;;;;;;4.32;83.70;94633.66;5023304;28;20040;-71
2021/01/23 07:09:59;;;;;;;15.60;9.35;;;;;;;4.39;83.73;94644.78;5024793;28;20049;-71
2021/01/23 07:12:43;;;;;;;16.40;13.10;;;;;;;4.49;82.84;94628.13;5007354;28;20049;-71
2021/01/23 07:15:14;;;;;;;16.35;10.07;;;;;;;4.53;82.81;94629.31;5024638;28;20090;-72
2021/01/23 07:17:45;;;;;;;20.70;12.68;;;;;;;4.60;81.94;94627.53;5032438;28;20040;-72
2021/01/23 07:20:16;;;;;;;17.35;10.57;;;;;;;4.55;82.19;94617.78;5032216;28;20035;-71
2021/01/23 07:22:45;;;;;;;17.67;10.65;;;;;;;4.70;82.06;94620.19;5039888;28;20049;-72
2021/01/23 07:25:16;;;;;;;27.88;16.85;;;;;;;4.73;81.63;94619.78;5019346;28;20059;-72
2021/01/23 07:27:44;;;;;;;20.17;14.73;;;;;;;4.79;81.02;94619.00;5026090;28;20068;-71
2021/01/23 07:30:12;;;;;;;20.58;13.80;;;;;;;4.85;80.94;94611.44;5042126;28;20502;-71
2021/01/23 07:32:40;;;;;;;18.27;8.45;;;;;;;4.99;80.45;94628.50;5020535;28;20039;-72
2021/01/23 07:35:07;;;;;;;13.48;8.15;;;;;;;5.03;80.38;94623.75;5018803;28;20046;-71
2021/01/23 07:37:58;;;;;;;14.02;9.93;;;;;;;5.11;80.19;94620.94;5007521;28;20508;-71
2021/01/23 07:40:27;;;;;;;14.25;8.38;;;;;;;5.19;80.04;94628.47;5035464;28;20631;-70
2021/01/23 07:42:58;;;;;;;15.02;9.68;;;;;;;5.26;79.85;94628.47;5012836;28;20453;-70
2021/01/23 07:45:24;;;;;;;15.30;9.27;;;;;;;5.28;80.39;94621.31;5006440;28;20098;-71
2021/01/23 07:47:59;;;;;;;15.77;9.25;;;;;;;5.23;80.63;94624.47;5008861;28;20034;-71
2021/01/23 07:50:27;;;;;;;17.13;10.23;;;;;;;5.27;81.11;94623.06;5023633;28;20052;-71
2021/01/23 07:52:53;;;;;;;17.05;9.55;;;;;;;5.24;80.77;94625.25;5032951;28;20498;-72
2021/01/23 07:55:19;;;;;;;15.98;9.30;;;;;;;5.36;80.56;94639.16;5023525;28;20043;-71
2021/01/23 07:58:05;;;;;;;17.63;9.82;;;;;;;5.41;80.23;94641.91;4999441;28;20052;-71
2021/01/23 08:00:31;;;;;;;15.35;9.27;;;;;;;5.47;80.08;94628.19;5009751;28;20036;-72
2021/01/23 08:02:58;;;;;;;18.38;11.82;;;;;;;5.54;80.17;94628.94;5008741;28;20492;-72
2021/01/23 08:05:51;;;;;;;16.38;10.95;;;;;;;5.65;79.82;94624.16;5024844;28;20437;-72
2021/01/23 08:08:31;;;;;;;19.30;11.77;;;;;;;5.65;79.60;94622.34;5035957;28;20034;-71
2021/01/23 08:11:01;;;;;;;19.52;11.20;;;;;;;5.74;78.98;94626.31;5001693;28;20122;-72
2021/01/23 08:13:31;;;;;;;18.45;12.00;;;;;;;5.83;78.53;94613.94;5031329;28;20040;-72
2021/01/23 08:16:16;;;;;;;14.60;9.65;;;;;;;5.85;78.93;94605.97;5035371;28;20048;-72
2021/01/23 08:18:43;;;;;;;19.67;11.10;;;;;;;5.95;78.89;94611.50;5031672;28;20508;-72
2021/01/23 08:21:21;;;;;;;17.35;9.23;;;;;;;5.92;78.44;94607.53;5042592;28;20046;-71
2021/01/23 08:23:48;;;;;;;16.80;9.27;;;;;;;6.03;78.23;94607.91;5026468;28;20517;-72
2021/01/23 08:26:16;;;;;;;15.45;10.10;;;;;;;6.13;77.97;94608.25;5008781;28;20502;-72
2021/01/23 08:28:44;;;;;;;18.08;10.80;;;;;;;6.27;77.87;94620.09;5028821;28;20049;-72
2021/01/23 08:31:11;;;;;;;17.15;11.20;;;;;;;6.35;77.50;94615.66;5026516;28;20122;-72
2021/01/23 08:33:37;;;;;;;15.82;9.43;;;;;;;6.41;77.50;94614.81;5024331;28;20390;-72
2021/01/23 08:36:04;;;;;;;18.27;12.30;;;;;;;6.47;76.95;94612.19;5038880;28;20047;-72
2021/01/23 08:38:30;;;;;;;15.45;10.52;;;;;;;6.38;76.76;94589.38;5030284;28;20046;-72
2021/01/23 08:40:57;;;;;;;15.05;10.07;;;;;;;6.56;76.77;94612.72;5030213;28;20066;-71
2021/01/23 08:43:23;;;;;;;14.85;8.88;;;;;;;6.72;76.08;94618.38;5056824;28;20040;-72
2021/01/23 08:45:50;;;;;;;12.30;7.93;;;;;;;6.81;75.96;94599.00;5022052;28;20486;-71
2021/01/23 08:48:16;;;;;;;14.73;8.52;;;;;;;6.95;75.22;94608.25;5023176;28;20042;-71
2021/01/23 08:50:43;;;;;;;12.57;8.63;;;;;;;7.06;74.88;94596.38;4983738;28;20065;-71
2021/01/23 08:53:09;;;;;;;15.10;9.70;;;;;;;6.96;74.71;94591.69;5020962;28;20409;-72
2021/01/23 08:55:35;;;;;;;14.82;8.60;;;;;;;7.12;74.42;94610.28;5048046;28;20037;-71
2021/01/23 08:58:02;;;;;;;15.40;9.13;;;;;;;7.16;74.60;94606.25;5065697;28;20098;-71
2021/01/23 09:00:29;;;;;;;16.40;9.88;;;;;;;7.20;74.29;94586.66;5011430;28;20052;-72
2021/01/23 09:02:55;;;;;;;13.82;9.20;;;;;;;7.25;74.24;94594.59;5069776;28;20033;-72
2021/01/23 09:05:22;;;;;;;17.63;10.02;;;;;;;7.26;74.14;94586.59;4989952;28;20042;-71
2021/01/23 09:07:48;;;;;;;15.15;10.50;;;;;;;7.42;73.66;94594.81;5012632;28;20505;-71
2021/01/23 09:10:15;;;;;;;18.95;10.82;;;;;;;7.56;74.03;94600.63;5027446;28;20055;-71
2021/01/23 09:12:41;;;;;;;12.82;8.65;;;;;;;7.71;72.70;94593.28;5035664;28;20051;-72
2021/01/23 09:15:08;;;;;;;12.90;7.85;;;;;;;7.80;73.28;94589.38;5012617;28;20055;-72
2021/01/23 09:17:35;;;;;;;14.93;8.38;;;;;;;7.97;72.61;94586.94;5040768;28;20046;-71
2021/01/23 09:20:03;;;;;;;16.08;9.07;;;;;;;8.02;71.66;94588.88;5050376;28;20050;-72
2021/01/23 09:22:30;;;;;;;15.80;9.02;;;;;;;8.18;72.45;94593.44;4988273;28;20133;-70
2021/01/23 09:24:56;;;;;;;14.52;8.38;;;;;;;8.13;72.54;94572.56;4993766;28;20039;-70
2021/01/23 09:27:22;;;;;;;16.23;9.88;;;;;;;8.20;71.77;94575.84;5056575;28;20041;-71
2021/01/23 09:29:49;;;;;;;19.90;10.52;;;;;;;8.05;72.19;94552.16;5068447;28;20124;-69
2021/01/23 09:32:17;;;;;;;24.15;11.82;;;;;;;8.15;72.36;94567.16;4988534;28;20073;-71
2021/01/23 09:34:44;;;;;;;19.05;11.18;;;;;;;8.23;72.12;94562.44;4994247;28;20050;-71
2021/01/23 09:37:10;;;;;;;20.30;10.88;;;;;;;8.29;71.98;94557.38;5057012;28;20044;-72
2021/01/23 09:39:36;;;;;;;17.35;10.82;;;;;;;8.38;71.78;94561.25;5056865;28;20133;-71
2021/01/23 09:42:03;;;;;;;16.13;9.00;;;;;;;8.48;70.86;94550.31;5042231;28;20044;-71
2021/01/23 09:44:29;;;;;;;13.52;8.95;;;;;;;8.68;70.01;94560.38;5051616;28;20043;-71
2021/01/23 09:46:55;;;;;;;14.30;9.93;;;;;;;8.79;69.16;94565.59;5069160;28;20137;-71
2021/01/23 09:49:22;;;;;;;18.85;12.05;;;;;;;8.97;69.12;94563.91;5021178;28;20139;-71
2021/01/23 09:51:49;;;;;;;15.15;9.90;;;;;;;8.92;67.53;94556.78;5065744;28;20120;-71
2021/01/23 09:54:16;;;;;;;17.30;10.10;;;;;;;9.04;67.67;94558.56;5022886;28;20043;-72
2021/01/23 09:57:03;;;;;;;16.17;9.25;;;;;;;9.10;66.99;94547.28;5039458;28;20105;-72
2021/01/23 09:59:29;;;;;;;34.08;17.13;;;;;;;9.44;66.33;94557.84;4987015;28;20663;-71
2021/01/23 10:02:01;;;;;;;106.10;39.92;;;;;;;9.75;65.63;94559.22;4993305;28;20841;-72
2021/01/23 10:04:28;;;;;;;42.47;21.05;;;;;;;9.83;65.33;94545.03;5048677;28;20158;-70
2021/01/23 10:06:55;;;;;;;22.40;13.40;;;;;;;9.91;64.68;94544.69;5009860;28;20391;-69
2021/01/23 10:09:22;;;;;;;15.73;9.68;;;;;;;10.03;63.97;94540.22;4987087;28;20096;-70
2021/01/23 10:11:50;;;;;;;18.88;10.52;;;;;;;9.90;64.39;94545.69;5038461;28;20525;-72
2021/01/23 10:14:17;;;;;;;15.93;11.05;;;;;;;9.78;63.97;94545.75;5010790;28;20490;-70
2021/01/23 10:16:44;;;;;;;19.52;12.30;;;;;;;9.47;64.91;94536.56;4987969;28;20122;-70
2021/01/23 10:19:10;;;;;;;19.30;12.57;;;;;;;9.43;65.50;94530.25;5011769;28;20472;-70
2021/01/23 10:21:38;;;;;;;18.77;11.82;;;;;;;9.45;65.41;94515.22;5067665;28;20036;-70
2021/01/23 10:24:05;;;;;;;14.50;8.40;;;;;;;9.55;66.12;94523.22;5035137;28;20038;-70
2021/01/23 10:26:32;;;;;;;10.45;7.22;;;;;;;9.26;65.96;94518.00;5023719;28;20036;-70
2021/01/23 10:28:59;;;;;;;13.75;8.65;;;;;;;9.21;66.12;94517.88;5023284;28;20072;-70
2021/01/23 10:31:26;;;;;;;16.95;12.15;;;;;;;9.29;66.00;94519.31;4985640;28;20039;-70
2021/01/23 10:33:53;;;;;;;15.60;9.50;;;;;;;9.54;65.81;94506.03;5011676;28;20040;-70
2021/01/23 10:36:19;;;;;;;15.52;9.35;;;;;;;9.84;65.39;94494.59;5066861;28;20531;-71
2021/01/23 10:38:46;;;;;;;19.10;12.55;;;;;;;10.08;64.46;94485.66;5039342;28;20044;-71
2021/01/23 10:41:13;;;;;;;15.00;8.65;;;;;;;10.09;64.55;94487.22;5053421;28;20042;-71
2021/01/23 10:43:39;;;;;;;24.65;12.85;;;;;;;10.40;63.46;94477.31;4991099;28;20038;-72
2021/01/23 10:46:06;;;;;;;21.23;11.15;;;;;;;10.44;63.76;94473.22;4997156;28;20038;-72
2021/01/23 10:48:32;;;;;;;13.63;9.93;;;;;;;10.16;63.47;94458.44;5052579;28;20106;-72
2021/01/23 10:50:59;;;;;;;15.75;9.77;;;;;;;10.11;63.97;94447.97;5043421;28;20045;-71
2021/01/23 10:53:25;;;;;;;14.05;8.95;;;;;;;10.00;63.94;94457.41;5021061;28;20050;-70
2021/01/23 10:55:51;;;;;;;13.20;9.23;;;;;;;9.87;64.46;94432.50;5023600;28;20067;-70
2021/01/23 10:58:18;;;;;;;14.10;8.30;;;;;;;10.12;64.70;94439.91;4981574;28;20043;-71
2021/01/23 11:00:44;;;;;;;17.33;10.18;;;;;;;9.92;64.05;94426.56;5034086;28;20036;-71
2021/01/23 11:03:10;;;;;;;25.17;16.02;;;;;;;9.74;64.74;94444.00;5026385;28;20044;-71
2021/01/23 11:05:38;;;;;;;23.30;13.05;;;;;;;9.73;64.48;94433.81;5023573;28;20040;-71
2021/01/23 11:08:05;;;;;;;20.13;10.48;;;;;;;9.73;65.16;94426.81;5061811;28;20075;-70
2021/01/23 11:10:31;;;;;;;17.20;10.00;;;;;;;9.86;64.98;94425.72;5062675;28;20075;-71
2021/01/23 11:12:58;;;;;;;21.35;10.25;;;;;;;9.82;65.42;94408.22;4998429;28;20381;-70
2021/01/23 11:15:25;;;;;;;17.27;9.32;;;;;;;9.50;65.21;94432.13;5025606;28;20498;-71
2021/01/23 11:17:52;;;;;;;14.82;10.02;;;;;;;9.46;65.58;94397.25;5015145;28;20123;-71
2021/01/23 11:20:18;;;;;;;21.67;12.70;;;;;;;9.27;66.23;94397.41;5062506;28;20040;-71
2021/01/23 11:22:45;;;;;;;18.23;11.63;;;;;;;9.10;67.05;94402.56;5026543;28;20038;-71
2021/01/23 11:25:15;;;;;;;24.58;14.77;;;;;;;8.91;67.92;94404.56;5058912;28;20540;-71
2021/01/23 11:27:42;;;;;;;19.88;14.45;;;;;;;8.52;68.38;94409.50;5061298;28;20050;-71
2021/01/23 11:30:10;;;;;;;17.77;10.73;;;;;;;8.35;68.76;94400.78;5055924;28;20036;-72
2021/01/23 11:32:37;;;;;;;22.60;12.95;;;;;;;8.27;69.02;94409.72;5057823;28;20410;-72
2021/01/23 11:35:05;;;;;;;19.27;10.70;;;;;;;8.22;69.45;94405.19;5067373;28;20041;-71
2021/01/23 11:37:33;;;;;;;17.80;12.50;;;;;;;8.00;69.56;94393.81;5035176;28;20046;-72
2021/01/23 11:39:59;;;;;;;18.25;10.68;;;;;;;8.01;70.19;94393.59;4985362;28;20117;-72
2021/01/23 11:42:26;;;;;;;18.63;11.55;;;;;;;7.89;70.17;94371.28;4985288;28;20412;-71